createdAt,value
2022-12-02T00:01:21.158Z,17.50
2022-12-02T00:03:52.285Z,18.50
2022-12-02T00:06:30.330Z,16.98
2022-12-02T00:09:05.027Z,17.48
2022-12-02T00:11:34.503Z,17.90
2022-12-02T00:14:16.867Z,19.67
2022-12-02T00:16:46.348Z,20.58
2022-12-02T00:19:16.097Z,20.27
2022-12-02T00:21:47.211Z,19.98
2022-12-02T00:24:17.640Z,19.20
2022-12-02T00:26:47.693Z,20.95
2022-12-02T00:29:17.985Z,19.17
2022-12-02T00:31:47.723Z,19.05
2022-12-02T00:34:17.690Z,18.47
2022-12-02T00:36:49.134Z,18.90
2022-12-02T00:39:18.956Z,18.73
2022-12-02T00:41:48.286Z,17.80
2022-12-02T00:44:34.974Z,19.70
2022-12-02T00:47:04.362Z,19.33
2022-12-02T00:49:34.507Z,18.90
2022-12-02T00:52:05.994Z,21.10
2022-12-02T00:54:36.080Z,20.73
2022-12-02T00:57:06.804Z,17.92
2022-12-02T01:02:05.548Z,17.67
2022-12-02T01:04:35.512Z,18.45
2022-12-02T01:07:06.450Z,18.85
2022-12-02T01:09:36.664Z,18.20
2022-12-02T01:12:06.939Z,18.63
2022-12-02T01:14:37.670Z,17.88
2022-12-02T01:17:07.441Z,17.75
2022-12-02T01:19:37.476Z,18.60
2022-12-02T01:22:08.415Z,19.30
2022-12-02T01:24:38.517Z,18.17
2022-12-02T01:27:08.083Z,19.75
2022-12-02T01:29:38.222Z,19.15
2022-12-02T01:32:08.296Z,16.50
2022-12-02T01:34:38.493Z,18.50
2022-12-02T01:37:09.486Z,17.77
2022-12-02T01:39:39.781Z,18.00
2022-12-02T01:42:09.506Z,18.00
2022-12-02T01:44:39.808Z,18.13
2022-12-02T01:47:09.680Z,18.77
2022-12-02T01:49:39.774Z,19.45
2022-12-02T01:52:10.796Z,17.90
2022-12-02T01:54:41.140Z,18.42
2022-12-02T01:57:14.880Z,18.48
2022-12-02T01:59:45.677Z,18.77
2022-12-02T02:02:33.020Z,16.17
2022-12-02T02:05:05.984Z,18.77
2022-12-02T02:07:38.787Z,18.15
2022-12-02T02:10:11.178Z,17.13
2022-12-02T02:12:41.407Z,17.67
2022-12-02T02:15:13.541Z,17.67
2022-12-02T02:17:43.107Z,17.75
2022-12-02T02:20:16.781Z,17.83
2022-12-02T02:22:52.098Z,18.20
2022-12-02T02:25:23.378Z,18.80
2022-12-02T02:27:56.644Z,18.80
2022-12-02T02:30:28.923Z,17.50
2022-12-02T02:32:59.905Z,18.05
2022-12-02T02:35:33.444Z,17.50
2022-12-02T02:38:03.138Z,16.38
2022-12-02T02:40:35.254Z,17.48
2022-12-02T02:43:08.982Z,16.85
2022-12-02T02:45:41.095Z,15.70
2022-12-02T02:48:13.380Z,16.80
2022-12-02T02:50:46.701Z,16.08
2022-12-02T02:53:17.234Z,15.45
2022-12-02T02:55:48.971Z,15.60
2022-12-02T02:58:23.707Z,15.50
2022-12-02T03:00:56.740Z,16.10
2022-12-02T03:03:29.715Z,14.60
2022-12-02T03:06:01.591Z,15.95
2022-12-02T03:08:33.114Z,16.70
2022-12-02T03:11:05.166Z,15.25
2022-12-02T03:13:38.688Z,17.33
2022-12-02T03:16:11.339Z,16.27
2022-12-02T03:18:42.108Z,16.55
2022-12-02T03:21:12.451Z,15.18
2022-12-02T03:23:41.953Z,15.10
2022-12-02T03:26:15.019Z,15.48
2022-12-02T03:28:44.785Z,15.48
2022-12-02T03:31:15.281Z,16.00
2022-12-02T03:33:45.263Z,16.95
2022-12-02T03:36:15.439Z,16.98
2022-12-02T03:38:45.798Z,16.60
2022-12-02T03:41:20.239Z,16.33
2022-12-02T03:43:50.059Z,14.93
2022-12-02T03:46:20.392Z,14.80
2022-12-02T03:48:50.045Z,15.02
2022-12-02T03:51:20.165Z,14.53
2022-12-02T03:53:49.903Z,15.10
2022-12-02T03:56:21.475Z,16.92
2022-12-02T04:01:23.387Z,15.65
2022-12-02T04:03:52.711Z,15.73
2022-12-02T04:06:22.964Z,15.20
2022-12-02T04:08:52.223Z,15.25
2022-12-02T04:11:23.291Z,15.85
2022-12-02T04:13:52.803Z,15.30
2022-12-02T04:16:22.796Z,14.63
2022-12-02T04:18:52.344Z,16.02
2022-12-02T04:21:22.128Z,16.80
2022-12-02T04:23:52.428Z,16.77
2022-12-02T04:26:24.051Z,16.75
2022-12-02T04:28:53.440Z,18.25
2022-12-02T04:31:23.131Z,17.50
2022-12-02T04:33:52.951Z,15.30
2022-12-02T04:36:22.856Z,17.42
2022-12-02T04:38:52.136Z,17.45
2022-12-02T04:41:23.811Z,17.73
2022-12-02T04:43:53.060Z,16.00
2022-12-02T04:46:23.362Z,18.52
2022-12-02T04:48:52.607Z,16.83
2022-12-02T04:51:22.661Z,18.40
2022-12-02T04:53:52.803Z,17.15
2022-12-02T04:56:24.472Z,16.73
2022-12-02T04:58:53.834Z,17.77
2022-12-02T05:01:23.472Z,19.25
2022-12-02T05:03:52.936Z,17.80
2022-12-02T05:06:23.058Z,16.08
2022-12-02T05:08:52.522Z,18.42
2022-12-02T05:11:24.149Z,17.65
2022-12-02T05:13:53.591Z,20.40
2022-12-02T05:16:23.401Z,18.35
2022-12-02T05:18:53.220Z,16.55
2022-12-02T05:21:22.831Z,19.23
2022-12-02T05:23:52.333Z,19.50
2022-12-02T05:26:22.047Z,18.38
2022-12-02T05:28:52.772Z,21.30
2022-12-02T05:33:52.147Z,18.42
2022-12-02T05:36:21.761Z,18.40
2022-12-02T05:38:51.020Z,19.38
2022-12-02T05:41:21.067Z,18.60
2022-12-02T05:43:51.884Z,17.40
2022-12-02T05:46:23.192Z,20.17
2022-12-02T05:51:23.903Z,18.40
2022-12-02T05:56:27.536Z,16.45
2022-12-02T05:59:03.495Z,20.35
2022-12-02T06:01:35.472Z,17.52
2022-12-02T06:04:05.790Z,18.67
2022-12-02T06:06:37.935Z,20.80
2022-12-02T06:09:14.754Z,20.52
2022-12-02T06:11:45.221Z,18.85
2022-12-02T06:14:19.124Z,20.85
2022-12-02T06:16:53.349Z,20.90
2022-12-02T06:19:26.285Z,18.48
2022-12-02T06:21:58.649Z,20.52
2022-12-02T06:24:31.230Z,22.75
2022-12-02T06:27:02.511Z,23.75
2022-12-02T06:29:36.283Z,21.20
2022-12-02T06:32:12.955Z,21.95
2022-12-02T06:34:45.295Z,21.00
2022-12-02T06:37:18.091Z,23.35
2022-12-02T06:40:19.944Z,21.83
2022-12-02T06:42:40.942Z,23.70
2022-12-02T06:45:29.207Z,25.88
2022-12-02T06:48:07.456Z,22.88
2022-12-02T06:50:42.890Z,21.52
2022-12-02T06:53:26.320Z,22.33
2022-12-02T06:56:00.233Z,22.88
2022-12-02T06:58:36.099Z,23.52
2022-12-02T07:01:27.539Z,23.63
2022-12-02T07:04:06.830Z,23.27
2022-12-02T07:06:37.952Z,21.00
2022-12-02T07:09:18.147Z,19.90
2022-12-02T07:11:53.717Z,21.30
2022-12-02T07:14:31.578Z,20.52
2022-12-02T07:17:04.570Z,19.23
2022-12-02T07:19:43.745Z,20.45
2022-12-02T07:22:17.323Z,21.65
2022-12-02T07:24:54.073Z,19.10
2022-12-02T07:27:26.372Z,18.95
2022-12-02T07:29:57.744Z,22.52
2022-12-02T07:34:58.048Z,19.50
2022-12-02T07:37:27.820Z,19.70
2022-12-02T07:39:57.775Z,20.98
2022-12-02T07:42:27.420Z,23.85
2022-12-02T07:44:57.628Z,24.40
2022-12-02T07:47:29.003Z,22.85
2022-12-02T07:49:58.851Z,20.70
2022-12-02T07:52:28.088Z,22.05
2022-12-02T07:54:58.166Z,23.60
2022-12-02T07:57:28.341Z,22.85
2022-12-02T08:00:05.364Z,22.10
2022-12-02T08:02:36.096Z,21.83
2022-12-02T08:05:06.819Z,25.88
2022-12-02T08:07:36.411Z,28.77
2022-12-02T08:10:07.766Z,23.83
2022-12-02T08:12:37.188Z,25.33
2022-12-02T08:15:08.484Z,21.87
2022-12-02T08:17:39.795Z,21.00
2022-12-02T08:20:12.263Z,22.10
2022-12-02T08:22:41.729Z,18.88
2022-12-02T08:25:12.125Z,22.33
2022-12-02T08:27:45.367Z,23.48
2022-12-02T08:30:17.797Z,23.17
2022-12-02T08:32:48.770Z,20.50
2022-12-02T08:35:18.872Z,20.77
2022-12-02T08:37:48.624Z,19.00
2022-12-02T08:40:18.329Z,20.00
2022-12-02T08:42:47.951Z,20.10
2022-12-02T08:45:17.983Z,20.08
2022-12-02T08:47:49.007Z,18.80
2022-12-02T08:50:19.340Z,18.13
2022-12-02T08:52:49.496Z,18.00
2022-12-02T08:55:22.074Z,18.23
2022-12-02T08:57:51.415Z,16.60
2022-12-02T09:00:21.932Z,17.10
2022-12-02T09:02:52.854Z,13.90
2022-12-02T09:05:22.819Z,15.73
2022-12-02T09:07:52.252Z,15.25
2022-12-02T09:10:22.512Z,14.40
2022-12-02T09:12:54.043Z,13.68
2022-12-02T09:15:24.636Z,13.30
2022-12-02T09:17:55.365Z,14.23
2022-12-02T09:22:53.918Z,15.13
2022-12-02T09:25:24.326Z,13.05
2022-12-02T09:27:53.707Z,14.15
2022-12-02T09:30:23.467Z,13.88
2022-12-02T09:32:52.934Z,14.73
2022-12-02T09:35:24.100Z,14.43
2022-12-02T09:37:53.559Z,15.63
2022-12-02T09:40:23.443Z,15.43
2022-12-02T09:42:53.337Z,15.10
2022-12-02T09:45:23.541Z,14.45
2022-12-02T09:47:54.035Z,15.90
2022-12-02T09:50:26.515Z,16.20
2022-12-02T09:53:00.732Z,17.55
2022-12-02T09:55:30.781Z,16.42
2022-12-02T09:58:10.174Z,16.25
2022-12-02T10:00:40.442Z,17.77
2022-12-02T10:03:15.409Z,18.05
2022-12-02T10:05:49.915Z,17.55
2022-12-02T10:08:23.186Z,18.70
2022-12-02T10:10:57.060Z,17.13
2022-12-02T10:13:27.156Z,18.48
2022-12-02T10:15:57.357Z,16.67
2022-12-02T10:18:29.113Z,16.70
2022-12-02T10:21:00.208Z,16.90
2022-12-02T10:23:34.952Z,15.57
2022-12-02T10:26:16.467Z,15.10
2022-12-02T10:28:59.603Z,15.93
2022-12-02T10:31:29.591Z,16.17
2022-12-02T10:34:00.985Z,13.07
2022-12-02T10:36:39.385Z,15.15
2022-12-02T10:39:25.740Z,16.15
2022-12-02T10:42:17.208Z,16.10
2022-12-02T10:44:47.975Z,13.35
2022-12-02T10:47:25.385Z,14.30
2022-12-02T10:49:56.931Z,15.32
2022-12-02T10:52:32.219Z,13.68
2022-12-02T10:55:02.723Z,14.98
2022-12-02T10:57:34.481Z,13.45
2022-12-02T11:00:08.971Z,13.48
2022-12-02T11:02:46.506Z,14.02
2022-12-02T11:05:22.722Z,15.07
2022-12-02T11:07:56.060Z,12.95
2022-12-02T11:10:27.848Z,14.38
2022-12-02T11:13:07.321Z,13.10
2022-12-02T11:15:41.070Z,15.18
2022-12-02T11:18:12.840Z,12.95
2022-12-02T11:20:47.165Z,15.68
2022-12-02T11:23:23.938Z,13.27
2022-12-02T11:26:10.835Z,12.85
2022-12-02T11:29:07.036Z,12.13
2022-12-02T11:31:36.827Z,13.80
2022-12-02T11:34:27.520Z,12.35
2022-12-02T11:37:35.028Z,12.75
2022-12-02T11:40:29.232Z,13.38
2022-12-02T11:43:57.352Z,13.50
2022-12-02T11:46:42.630Z,12.40
2022-12-02T11:49:35.462Z,12.85
2022-12-02T11:52:19.635Z,13.38
2022-12-02T11:54:57.592Z,11.55
2022-12-02T11:57:32.544Z,13.30
2022-12-02T12:00:02.311Z,12.02
2022-12-02T12:02:32.783Z,12.20
2022-12-02T12:05:04.948Z,13.05
2022-12-02T12:07:46.048Z,13.13
2022-12-02T12:10:30.574Z,14.57
2022-12-02T12:13:22.646Z,11.73
2022-12-02T12:15:57.958Z,12.65
2022-12-02T12:18:41.802Z,13.95
2022-12-02T12:21:11.613Z,13.93
2022-12-02T12:23:43.156Z,11.53
2022-12-02T12:26:33.140Z,12.88
2022-12-02T12:29:08.034Z,13.05
2022-12-02T12:31:39.003Z,11.85
2022-12-02T12:34:11.122Z,12.93
2022-12-02T12:36:41.674Z,12.00
2022-12-02T12:39:11.824Z,15.02
2022-12-02T12:44:33.386Z,12.43
2022-12-02T12:47:04.700Z,12.77
2022-12-02T12:49:36.132Z,12.68
2022-12-02T12:52:06.431Z,13.80
2022-12-02T12:54:36.974Z,13.02
2022-12-02T12:57:06.441Z,13.82
2022-12-02T12:59:37.924Z,14.07
2022-12-02T13:02:07.574Z,13.65
2022-12-02T13:04:37.631Z,14.13
2022-12-02T13:07:06.932Z,14.65
2022-12-02T13:09:37.076Z,14.07
2022-12-02T13:12:12.564Z,14.95
2022-12-02T13:14:44.516Z,16.00
2022-12-02T13:17:14.091Z,12.25
2022-12-02T13:19:44.148Z,14.48
2022-12-02T13:22:13.402Z,12.80
2022-12-02T13:24:43.586Z,14.88
2022-12-02T13:27:13.067Z,12.82
2022-12-02T13:29:44.306Z,14.18
2022-12-02T13:32:13.818Z,14.95
2022-12-02T13:34:43.652Z,13.57
2022-12-02T13:37:12.981Z,13.27
2022-12-02T13:39:43.137Z,15.55
2022-12-02T13:42:12.519Z,14.93
2022-12-02T13:44:43.948Z,14.32
2022-12-02T13:47:13.700Z,13.75
2022-12-02T13:49:43.291Z,12.10
2022-12-02T13:52:12.893Z,13.40
2022-12-02T13:54:42.637Z,13.57
2022-12-02T13:57:12.123Z,14.48
2022-12-02T13:59:42.006Z,13.77
2022-12-02T14:02:14.051Z,17.17
2022-12-02T14:04:44.792Z,14.93
2022-12-02T14:07:14.270Z,12.88
2022-12-02T14:09:44.406Z,13.75
2022-12-02T14:12:14.942Z,13.18
2022-12-02T14:14:45.087Z,13.98
2022-12-02T14:17:15.841Z,14.68
2022-12-02T14:19:45.494Z,14.43
2022-12-02T14:22:14.997Z,14.30
2022-12-02T14:24:48.829Z,16.42
2022-12-02T14:27:18.804Z,17.15
2022-12-02T14:29:48.676Z,15.63
2022-12-02T14:32:19.531Z,15.63
2022-12-02T14:34:49.242Z,14.48
2022-12-02T14:37:18.843Z,16.40
2022-12-02T14:39:49.079Z,16.83
2022-12-02T14:42:18.344Z,14.27
2022-12-02T14:44:48.994Z,16.73
2022-12-02T14:47:19.940Z,14.88
2022-12-02T14:49:49.903Z,14.38
2022-12-02T14:52:19.487Z,17.23
2022-12-02T14:54:49.372Z,16.95
2022-12-02T14:57:19.084Z,16.90
2022-12-02T14:59:48.863Z,16.25
2022-12-02T15:02:19.773Z,16.40
2022-12-02T15:04:49.993Z,16.52
2022-12-02T15:07:19.468Z,16.15
2022-12-02T15:09:49.513Z,17.52
2022-12-02T15:12:18.799Z,16.73
2022-12-02T15:14:48.417Z,16.58
2022-12-02T15:17:19.405Z,18.88
2022-12-02T15:19:49.012Z,16.40
2022-12-02T15:22:18.743Z,18.27
2022-12-02T15:24:48.442Z,17.80
2022-12-02T15:27:18.468Z,17.85
2022-12-02T15:29:48.135Z,18.08
2022-12-02T15:32:19.417Z,18.17
2022-12-02T15:34:49.130Z,16.10
2022-12-02T15:37:18.422Z,17.58
2022-12-02T15:39:48.447Z,18.85
2022-12-02T15:42:17.833Z,17.15
2022-12-02T15:44:48.277Z,17.52
2022-12-02T15:47:19.043Z,19.33
2022-12-02T15:49:49.008Z,17.13
2022-12-02T15:52:18.619Z,20.33
2022-12-02T15:54:48.746Z,17.08
2022-12-02T15:57:18.281Z,18.92
2022-12-02T15:59:48.147Z,15.32
2022-12-02T16:02:19.185Z,17.48
2022-12-02T16:04:49.497Z,17.10
2022-12-02T16:07:19.216Z,15.77
2022-12-02T16:09:49.071Z,21.30
2022-12-02T16:12:18.390Z,17.77
2022-12-02T16:14:54.919Z,16.02
2022-12-02T16:17:26.299Z,17.15
2022-12-02T16:19:56.466Z,17.48
2022-12-02T16:22:25.796Z,18.63
2022-12-02T16:24:56.014Z,15.68
2022-12-02T16:27:25.566Z,16.50
2022-12-02T16:29:55.973Z,16.98
2022-12-02T16:32:26.875Z,18.13
2022-12-02T16:34:57.104Z,15.98
2022-12-02T16:37:26.399Z,17.23
2022-12-02T16:39:56.299Z,19.17
2022-12-02T16:42:25.801Z,16.40
2022-12-02T16:44:56.149Z,17.10
2022-12-02T16:47:27.441Z,16.77
2022-12-02T16:49:57.300Z,16.83
2022-12-02T16:52:26.815Z,18.30
2022-12-02T16:54:56.719Z,17.60
2022-12-02T16:57:26.184Z,18.00
2022-12-02T16:59:56.328Z,17.42
2022-12-02T17:02:31.973Z,17.17
2022-12-02T17:05:02.206Z,17.30
2022-12-02T17:07:31.555Z,19.02
2022-12-02T17:10:01.585Z,20.05
2022-12-02T17:12:30.939Z,18.27
2022-12-02T17:15:01.544Z,17.25
2022-12-02T17:17:48.039Z,19.08
2022-12-02T17:20:18.439Z,21.05
2022-12-02T17:22:47.815Z,19.25
2022-12-02T17:25:17.737Z,21.15
2022-12-02T17:27:47.045Z,19.85
2022-12-02T17:30:17.694Z,19.10
2022-12-02T17:32:53.350Z,17.92
2022-12-02T17:35:26.248Z,19.08
2022-12-02T17:37:56.081Z,17.70
2022-12-02T17:40:28.368Z,17.25
2022-12-02T17:42:57.937Z,17.83
2022-12-02T17:45:28.109Z,18.42
2022-12-02T17:47:59.084Z,16.25
2022-12-02T17:50:29.555Z,19.13
2022-12-02T17:52:59.480Z,20.40
2022-12-02T17:55:29.766Z,20.85
2022-12-02T17:58:00.373Z,19.42
2022-12-02T18:03:00.671Z,20.80
2022-12-02T18:05:30.480Z,21.45
2022-12-02T18:07:59.833Z,20.23
2022-12-02T18:10:29.952Z,20.98
2022-12-02T18:12:59.256Z,18.92
2022-12-02T18:15:29.240Z,21.20
2022-12-02T18:18:00.127Z,20.63
2022-12-02T18:20:30.243Z,19.85
2022-12-02T18:22:59.636Z,20.63
2022-12-02T18:25:29.636Z,19.55
2022-12-02T18:27:59.101Z,18.73
2022-12-02T18:30:29.137Z,20.90
2022-12-02T18:32:59.915Z,17.88
2022-12-02T18:35:29.863Z,20.38
2022-12-02T18:37:59.172Z,21.23
2022-12-02T18:40:29.391Z,18.25
2022-12-02T18:42:58.969Z,21.55
2022-12-02T18:45:29.176Z,20.47
2022-12-02T18:48:00.038Z,23.73
2022-12-02T18:50:30.308Z,21.88
2022-12-02T18:52:59.772Z,21.88
2022-12-02T18:55:29.668Z,23.05
2022-12-02T18:57:59.163Z,24.00
2022-12-02T19:00:28.936Z,22.15
2022-12-02T19:02:59.831Z,19.40
2022-12-02T19:05:29.543Z,22.05
2022-12-02T19:07:58.908Z,21.77
2022-12-02T19:10:29.570Z,19.80
2022-12-02T19:12:58.835Z,21.17
2022-12-02T19:15:28.905Z,21.30
2022-12-02T19:18:00.089Z,21.35
2022-12-02T19:20:29.704Z,23.45
2022-12-02T19:22:58.940Z,20.95
2022-12-02T19:25:30.583Z,22.13
2022-12-02T19:28:00.110Z,24.48
2022-12-02T19:30:29.766Z,21.38
2022-12-02T19:33:00.955Z,21.38
2022-12-02T19:35:32.168Z,20.95
2022-12-02T19:38:05.859Z,19.42
2022-12-02T19:40:44.381Z,20.90
2022-12-02T19:43:15.254Z,21.15
2022-12-02T19:45:45.795Z,21.80
2022-12-02T19:48:16.808Z,20.60
2022-12-02T19:50:46.807Z,21.13
2022-12-02T19:53:16.040Z,22.23
2022-12-02T19:55:45.961Z,22.92
2022-12-02T19:58:15.227Z,24.70
2022-12-02T20:00:45.167Z,22.33
2022-12-02T20:03:16.314Z,25.00
2022-12-02T20:05:47.896Z,22.98
2022-12-02T20:08:17.422Z,23.35
2022-12-02T20:10:47.453Z,23.63
2022-12-02T20:13:18.139Z,25.13
2022-12-02T20:15:48.127Z,25.85
2022-12-02T20:18:18.974Z,23.70
2022-12-02T20:20:48.907Z,24.38
2022-12-02T20:23:18.748Z,25.38
2022-12-02T20:25:48.716Z,23.60
2022-12-02T20:28:18.246Z,25.08
2022-12-02T20:30:48.580Z,23.63
2022-12-02T20:33:20.494Z,26.92
2022-12-02T20:35:50.080Z,26.17
2022-12-02T20:38:19.357Z,25.88
2022-12-02T20:40:49.353Z,25.10
2022-12-02T20:43:18.954Z,29.27
2022-12-02T20:45:51.249Z,26.25
2022-12-02T20:48:22.508Z,25.30
2022-12-02T20:50:52.529Z,28.17
2022-12-02T20:53:22.392Z,29.20
2022-12-02T20:55:52.981Z,29.27
2022-12-02T20:58:22.431Z,27.33
2022-12-02T21:00:52.749Z,29.00
2022-12-02T21:03:23.580Z,28.83
2022-12-02T21:05:56.306Z,26.73
2022-12-02T21:08:27.938Z,29.00
2022-12-02T21:10:58.266Z,27.85
2022-12-02T21:13:27.559Z,27.05
2022-12-02T21:15:57.926Z,28.55
2022-12-02T21:18:32.348Z,28.73
2022-12-02T21:21:06.662Z,28.92
2022-12-02T21:23:37.955Z,28.63
2022-12-02T21:26:08.403Z,27.92
2022-12-02T21:28:37.872Z,28.85
2022-12-02T21:31:07.785Z,27.67
2022-12-02T21:33:38.819Z,28.85
2022-12-02T21:36:09.544Z,28.25
2022-12-02T21:38:38.923Z,26.33
2022-12-02T21:41:09.388Z,28.50
2022-12-02T21:43:38.868Z,26.73
2022-12-02T21:46:09.054Z,25.98
2022-12-02T21:48:40.942Z,27.95
2022-12-02T21:51:12.072Z,27.27
2022-12-02T21:53:41.588Z,26.15
2022-12-02T21:56:11.301Z,25.13
2022-12-02T21:58:40.870Z,30.45
2022-12-02T22:01:33.609Z,27.70
2022-12-02T22:04:04.405Z,28.08
2022-12-02T22:06:35.905Z,26.55
2022-12-02T22:09:06.226Z,28.02
2022-12-02T22:11:36.598Z,27.80
2022-12-02T22:14:06.224Z,28.00
2022-12-02T22:16:36.246Z,27.40
2022-12-02T22:19:13.271Z,24.17
2022-12-02T22:21:45.091Z,23.30
2022-12-02T22:24:14.736Z,26.92
2022-12-02T22:26:45.054Z,23.17
2022-12-02T22:29:14.366Z,20.63
2022-12-02T22:31:44.754Z,21.40
2022-12-02T22:34:15.553Z,24.10
2022-12-02T22:36:45.564Z,21.88
2022-12-02T22:39:15.056Z,22.90
2022-12-02T22:41:45.020Z,23.30
2022-12-02T22:44:14.521Z,23.65
2022-12-02T22:46:44.387Z,25.83
2022-12-02T22:49:15.327Z,24.77
2022-12-02T22:51:45.734Z,23.98
2022-12-02T22:54:15.057Z,24.20
2022-12-02T22:56:45.031Z,25.30
2022-12-02T22:59:14.548Z,24.33
2022-12-02T23:01:44.879Z,26.00
2022-12-02T23:04:15.787Z,23.85
2022-12-02T23:06:45.863Z,24.85
2022-12-02T23:09:15.363Z,24.48
2022-12-02T23:11:45.077Z,24.50
2022-12-02T23:14:14.527Z,25.27
2022-12-02T23:16:44.719Z,24.37
2022-12-02T23:19:15.927Z,26.80
2022-12-02T23:21:46.075Z,27.15
2022-12-02T23:24:15.330Z,27.13
2022-12-02T23:26:46.139Z,25.35
2022-12-02T23:29:15.382Z,24.17
2022-12-02T23:31:45.650Z,25.70
2022-12-02T23:34:16.640Z,24.20
2022-12-02T23:36:46.253Z,25.85
2022-12-02T23:39:15.516Z,25.25
2022-12-02T23:41:45.003Z,25.45
2022-12-02T23:44:14.963Z,27.63
2022-12-02T23:46:44.243Z,25.85
2022-12-02T23:49:14.165Z,24.50
2022-12-02T23:51:44.910Z,24.40
2022-12-02T23:54:14.809Z,24.52
2022-12-02T23:56:44.247Z,26.33
2022-12-02T23:59:13.910Z,25.13
